sensor_id;sensor_type;location;lat;lon;timestamp;P1;durP1;ratioP1;P2;durP2;ratioP2
40755;SDS011;26461;45.630;9.418;2023-02-04T00:02:13;8.85;;;3.78;;
40755;SDS011;26461;45.630;9.418;2023-02-04T00:05:23;6.38;;;1.55;;
40755;SDS011;26461;45.630;9.418;2023-02-04T00:08:33;3.00;;;1.33;;
40755;SDS011;26461;45.630;9.418;2023-02-04T00:11:45;6.57;;;2.80;;
40755;SDS011;26461;45.630;9.418;2023-02-04T00:14:55;13.52;;;3.78;;
40755;SDS011;26461;45.630;9.418;2023-02-04T00:18:00;6.97;;;3.08;;
40755;SDS011;26461;45.630;9.418;2023-02-04T00:21:11;5.95;;;3.83;;
40755;SDS011;26461;45.630;9.418;2023-02-04T00:24:21;7.45;;;3.75;;
40755;SDS011;26461;45.630;9.418;2023-02-04T00:27:27;10.70;;;4.47;;
40755;SDS011;26461;45.630;9.418;2023-02-04T00:30:37;9.98;;;4.45;;
40755;SDS011;26461;45.630;9.418;2023-02-04T00:33:47;7.18;;;4.03;;
40755;SDS011;26461;45.630;9.418;2023-02-04T00:36:57;6.80;;;3.33;;
40755;SDS011;26461;45.630;9.418;2023-02-04T00:40:08;7.07;;;3.25;;
40755;SDS011;26461;45.630;9.418;2023-02-04T00:43:19;5.90;;;3.92;;
40755;SDS011;26461;45.630;9.418;2023-02-04T00:46:29;11.18;;;4.82;;
40755;SDS011;26461;45.630;9.418;2023-02-04T00:49:34;8.23;;;7.45;;
40755;SDS011;26461;45.630;9.418;2023-02-04T00:52:40;4.55;;;3.35;;
40755;SDS011;26461;45.630;9.418;2023-02-04T00:55:50;8.07;;;4.55;;
40755;SDS011;26461;45.630;9.418;2023-02-04T00:58:56;14.20;;;6.03;;
40755;SDS011;26461;45.630;9.418;2023-02-04T01:02:06;11.18;;;3.45;;
40755;SDS011;26461;45.630;9.418;2023-02-04T01:05:16;15.10;;;8.07;;
40755;SDS011;26461;45.630;9.418;2023-02-04T01:08:21;24.67;;;7.45;;
40755;SDS011;26461;45.630;9.418;2023-02-04T01:11:31;8.60;;;3.97;;
40755;SDS011;26461;45.630;9.418;2023-02-04T01:14:36;7.10;;;4.53;;
40755;SDS011;26461;45.630;9.418;2023-02-04T01:17:42;12.00;;;5.07;;
40755;SDS011;26461;45.630;9.418;2023-02-04T01:20:52;9.13;;;6.38;;
40755;SDS011;26461;45.630;9.418;2023-02-04T01:23:57;16.00;;;6.47;;
40755;SDS011;26461;45.630;9.418;2023-02-04T01:27:07;10.05;;;5.00;;
40755;SDS011;26461;45.630;9.418;2023-02-04T01:30:13;8.80;;;4.82;;
40755;SDS011;26461;45.630;9.418;2023-02-04T01:33:20;11.60;;;7.72;;
40755;SDS011;26461;45.630;9.418;2023-02-04T01:36:32;9.00;;;4.82;;
40755;SDS011;26461;45.630;9.418;2023-02-04T01:39:42;11.32;;;8.02;;
40755;SDS011;26461;45.630;9.418;2023-02-04T01:42:47;13.27;;;6.80;;
40755;SDS011;26461;45.630;9.418;2023-02-04T01:45:52;9.52;;;7.05;;
40755;SDS011;26461;45.630;9.418;2023-02-04T01:48:59;10.60;;;7.20;;
40755;SDS011;26461;45.630;9.418;2023-02-04T01:52:10;8.88;;;5.93;;
40755;SDS011;26461;45.630;9.418;2023-02-04T01:55:28;15.38;;;6.88;;
40755;SDS011;26461;45.630;9.418;2023-02-04T01:58:39;10.88;;;7.85;;
40755;SDS011;26461;45.630;9.418;2023-02-04T02:01:48;17.42;;;6.97;;
40755;SDS011;26461;45.630;9.418;2023-02-04T02:05:01;11.88;;;7.72;;
40755;SDS011;26461;45.630;9.418;2023-02-04T02:08:08;5.65;;;4.75;;
40755;SDS011;26461;45.630;9.418;2023-02-04T02:11:19;11.73;;;5.75;;
40755;SDS011;26461;45.630;9.418;2023-02-04T02:14:29;10.25;;;6.75;;
40755;SDS011;26461;45.630;9.418;2023-02-04T02:17:35;10.45;;;6.70;;
40755;SDS011;26461;45.630;9.418;2023-02-04T02:20:41;10.65;;;7.00;;
40755;SDS011;26461;45.630;9.418;2023-02-04T02:23:53;9.63;;;7.25;;
40755;SDS011;26461;45.630;9.418;2023-02-04T02:27:08;10.82;;;5.93;;
40755;SDS011;26461;45.630;9.418;2023-02-04T02:30:15;9.30;;;7.22;;
40755;SDS011;26461;45.630;9.418;2023-02-04T02:33:22;10.93;;;5.65;;
40755;SDS011;26461;45.630;9.418;2023-02-04T02:36:28;14.38;;;8.02;;
40755;SDS011;26461;45.630;9.418;2023-02-04T02:39:38;20.48;;;9.52;;
40755;SDS011;26461;45.630;9.418;2023-02-04T02:42:53;12.90;;;6.18;;
40755;SDS011;26461;45.630;9.418;2023-02-04T02:46:03;11.20;;;7.65;;
40755;SDS011;26461;45.630;9.418;2023-02-04T02:49:14;7.78;;;6.25;;
40755;SDS011;26461;45.630;9.418;2023-02-04T02:52:24;13.23;;;8.15;;
40755;SDS011;26461;45.630;9.418;2023-02-04T02:55:31;21.73;;;9.45;;
40755;SDS011;26461;45.630;9.418;2023-02-04T02:58:36;12.82;;;8.45;;
40755;SDS011;26461;45.630;9.418;2023-02-04T03:01:49;19.98;;;11.13;;
40755;SDS011;26461;45.630;9.418;2023-02-04T03:05:05;17.10;;;8.45;;
40755;SDS011;26461;45.630;9.418;2023-02-04T03:08:11;13.13;;;7.10;;
40755;SDS011;26461;45.630;9.418;2023-02-04T03:11:23;22.02;;;11.48;;
40755;SDS011;26461;45.630;9.418;2023-02-04T03:14:37;9.98;;;6.22;;
40755;SDS011;26461;45.630;9.418;2023-02-04T03:17:42;13.15;;;9.13;;
40755;SDS011;26461;45.630;9.418;2023-02-04T03:20:53;14.77;;;7.03;;
40755;SDS011;26461;45.630;9.418;2023-02-04T03:24:07;8.55;;;5.82;;
40755;SDS011;26461;45.630;9.418;2023-02-04T03:27:14;20.42;;;9.38;;
40755;SDS011;26461;45.630;9.418;2023-02-04T03:30:24;14.38;;;9.63;;
40755;SDS011;26461;45.630;9.418;2023-02-04T03:33:35;9.95;;;7.85;;
40755;SDS011;26461;45.630;9.418;2023-02-04T03:36:45;14.98;;;8.48;;
40755;SDS011;26461;45.630;9.418;2023-02-04T03:39:55;20.02;;;8.15;;
40755;SDS011;26461;45.630;9.418;2023-02-04T03:43:00;8.55;;;4.03;;
40755;SDS011;26461;45.630;9.418;2023-02-04T03:46:09;15.48;;;6.78;;
40755;SDS011;26461;45.630;9.418;2023-02-04T03:49:20;13.43;;;8.05;;
40755;SDS011;26461;45.630;9.418;2023-02-04T03:52:30;15.30;;;8.52;;
40755;SDS011;26461;45.630;9.418;2023-02-04T03:55:35;12.32;;;5.57;;
40755;SDS011;26461;45.630;9.418;2023-02-04T03:58:46;9.80;;;6.55;;
40755;SDS011;26461;45.630;9.418;2023-02-04T04:01:52;13.98;;;7.47;;
40755;SDS011;26461;45.630;9.418;2023-02-04T04:04:57;20.10;;;7.70;;
40755;SDS011;26461;45.630;9.418;2023-02-04T04:08:05;10.25;;;5.28;;
40755;SDS011;26461;45.630;9.418;2023-02-04T04:11:12;8.23;;;5.13;;
40755;SDS011;26461;45.630;9.418;2023-02-04T04:14:17;10.57;;;4.07;;
40755;SDS011;26461;45.630;9.418;2023-02-04T04:17:27;17.00;;;6.65;;
40755;SDS011;26461;45.630;9.418;2023-02-04T04:20:31;11.73;;;4.47;;
40755;SDS011;26461;45.630;9.418;2023-02-04T04:23:41;13.98;;;5.50;;
40755;SDS011;26461;45.630;9.418;2023-02-04T04:26:52;10.88;;;6.57;;
40755;SDS011;26461;45.630;9.418;2023-02-04T04:29:57;19.75;;;7.05;;
40755;SDS011;26461;45.630;9.418;2023-02-04T04:33:03;7.45;;;3.35;;
40755;SDS011;26461;45.630;9.418;2023-02-04T04:36:14;7.75;;;5.40;;
40755;SDS011;26461;45.630;9.418;2023-02-04T04:39:24;6.80;;;4.85;;
40755;SDS011;26461;45.630;9.418;2023-02-04T04:42:34;10.10;;;4.13;;
40755;SDS011;26461;45.630;9.418;2023-02-04T04:45:44;12.68;;;6.65;;
40755;SDS011;26461;45.630;9.418;2023-02-04T04:48:49;10.07;;;3.28;;
40755;SDS011;26461;45.630;9.418;2023-02-04T04:51:54;12.70;;;5.43;;
40755;SDS011;26461;45.630;9.418;2023-02-04T04:55:06;11.00;;;4.63;;
40755;SDS011;26461;45.630;9.418;2023-02-04T04:58:17;9.77;;;4.05;;
40755;SDS011;26461;45.630;9.418;2023-02-04T05:01:24;6.20;;;5.60;;
40755;SDS011;26461;45.630;9.418;2023-02-04T05:04:29;9.57;;;4.82;;
40755;SDS011;26461;45.630;9.418;2023-02-04T05:07:34;26.92;;;6.50;;
40755;SDS011;26461;45.630;9.418;2023-02-04T05:10:48;12.02;;;4.50;;
40755;SDS011;26461;45.630;9.418;2023-02-04T05:13:53;6.60;;;4.60;;
40755;SDS011;26461;45.630;9.418;2023-02-04T05:17:02;6.70;;;3.40;;
40755;SDS011;26461;45.630;9.418;2023-02-04T05:20:12;13.00;;;5.68;;
40755;SDS011;26461;45.630;9.418;2023-02-04T05:23:22;7.05;;;4.80;;
40755;SDS011;26461;45.630;9.418;2023-02-04T05:26:28;6.70;;;3.70;;
40755;SDS011;26461;45.630;9.418;2023-02-04T05:29:38;8.93;;;3.30;;
40755;SDS011;26461;45.630;9.418;2023-02-04T05:32:43;13.20;;;3.63;;
40755;SDS011;26461;45.630;9.418;2023-02-04T05:35:48;16.08;;;7.63;;
40755;SDS011;26461;45.630;9.418;2023-02-04T05:38:53;10.20;;;6.00;;
40755;SDS011;26461;45.630;9.418;2023-02-04T05:42:04;6.93;;;3.95;;
40755;SDS011;26461;45.630;9.418;2023-02-04T05:45:10;8.00;;;2.63;;
40755;SDS011;26461;45.630;9.418;2023-02-04T05:48:22;6.05;;;3.17;;
40755;SDS011;26461;45.630;9.418;2023-02-04T05:51:28;9.73;;;4.13;;
40755;SDS011;26461;45.630;9.418;2023-02-04T05:54:39;13.18;;;5.72;;
40755;SDS011;26461;45.630;9.418;2023-02-04T05:57:44;11.65;;;8.20;;
40755;SDS011;26461;45.630;9.418;2023-02-04T06:00:53;17.13;;;6.80;;
40755;SDS011;26461;45.630;9.418;2023-02-04T06:04:04;13.20;;;5.75;;
40755;SDS011;26461;45.630;9.418;2023-02-04T06:07:14;11.88;;;6.18;;
40755;SDS011;26461;45.630;9.418;2023-02-04T06:10:19;15.30;;;8.68;;
40755;SDS011;26461;45.630;9.418;2023-02-04T06:13:29;32.70;;;8.98;;
40755;SDS011;26461;45.630;9.418;2023-02-04T06:16:40;15.13;;;6.47;;
40755;SDS011;26461;45.630;9.418;2023-02-04T06:19:50;17.80;;;6.40;;
40755;SDS011;26461;45.630;9.418;2023-02-04T06:23:00;16.70;;;7.03;;
40755;SDS011;26461;45.630;9.418;2023-02-04T06:26:11;20.58;;;6.18;;
40755;SDS011;26461;45.630;9.418;2023-02-04T06:29:22;16.00;;;7.43;;
40755;SDS011;26461;45.630;9.418;2023-02-04T06:32:27;10.15;;;8.10;;
40755;SDS011;26461;45.630;9.418;2023-02-04T06:35:38;10.60;;;4.50;;
40755;SDS011;26461;45.630;9.418;2023-02-04T06:38:49;12.40;;;6.10;;
40755;SDS011;26461;45.630;9.418;2023-02-04T06:41:59;14.23;;;6.60;;
40755;SDS011;26461;45.630;9.418;2023-02-04T06:45:04;12.55;;;6.15;;
40755;SDS011;26461;45.630;9.418;2023-02-04T06:48:10;10.75;;;4.25;;
40755;SDS011;26461;45.630;9.418;2023-02-04T06:51:16;6.97;;;5.50;;
40755;SDS011;26461;45.630;9.418;2023-02-04T06:54:21;18.75;;;7.53;;
40755;SDS011;26461;45.630;9.418;2023-02-04T06:57:27;12.88;;;6.63;;
40755;SDS011;26461;45.630;9.418;2023-02-04T07:00:33;11.95;;;4.53;;
40755;SDS011;26461;45.630;9.418;2023-02-04T07:03:43;11.88;;;6.60;;
40755;SDS011;26461;45.630;9.418;2023-02-04T07:06:54;8.60;;;5.97;;
40755;SDS011;26461;45.630;9.418;2023-02-04T07:10:03;11.73;;;7.20;;
40755;SDS011;26461;45.630;9.418;2023-02-04T07:13:13;14.88;;;5.07;;
40755;SDS011;26461;45.630;9.418;2023-02-04T07:16:22;10.20;;;5.78;;
40755;SDS011;26461;45.630;9.418;2023-02-04T07:19:27;10.43;;;5.43;;
40755;SDS011;26461;45.630;9.418;2023-02-04T07:22:37;15.05;;;7.55;;
40755;SDS011;26461;45.630;9.418;2023-02-04T07:25:47;17.27;;;5.90;;
40755;SDS011;26461;45.630;9.418;2023-02-04T07:28:58;7.85;;;4.82;;
40755;SDS011;26461;45.630;9.418;2023-02-04T07:32:09;8.57;;;4.22;;
40755;SDS011;26461;45.630;9.418;2023-02-04T07:35:14;12.45;;;5.60;;
40755;SDS011;26461;45.630;9.418;2023-02-04T07:38:25;12.38;;;5.15;;
40755;SDS011;26461;45.630;9.418;2023-02-04T07:41:31;12.95;;;6.47;;
40755;SDS011;26461;45.630;9.418;2023-02-04T07:44:39;13.45;;;4.65;;
40755;SDS011;26461;45.630;9.418;2023-02-04T07:47:44;17.58;;;6.85;;
40755;SDS011;26461;45.630;9.418;2023-02-04T07:50:49;13.82;;;3.58;;
40755;SDS011;26461;45.630;9.418;2023-02-04T07:53:59;6.45;;;3.67;;
40755;SDS011;26461;45.630;9.418;2023-02-04T07:57:09;13.10;;;5.50;;
40755;SDS011;26461;45.630;9.418;2023-02-04T08:00:18;13.43;;;4.88;;
40755;SDS011;26461;45.630;9.418;2023-02-04T08:03:30;8.68;;;5.05;;
40755;SDS011;26461;45.630;9.418;2023-02-04T08:06:39;12.75;;;6.35;;
40755;SDS011;26461;45.630;9.418;2023-02-04T08:09:49;9.52;;;4.35;;
40755;SDS011;26461;45.630;9.418;2023-02-04T08:12:59;4.53;;;2.90;;
40755;SDS011;26461;45.630;9.418;2023-02-04T08:16:09;10.75;;;3.25;;
40755;SDS011;26461;45.630;9.418;2023-02-04T08:19:19;9.65;;;4.72;;
40755;SDS011;26461;45.630;9.418;2023-02-04T08:22:29;12.45;;;3.60;;
40755;SDS011;26461;45.630;9.418;2023-02-04T08:25:39;8.75;;;2.58;;
40755;SDS011;26461;45.630;9.418;2023-02-04T08:28:49;5.63;;;1.25;;
40755;SDS011;26461;45.630;9.418;2023-02-04T08:31:59;6.05;;;3.33;;
40755;SDS011;26461;45.630;9.418;2023-02-04T08:35:04;6.00;;;2.53;;
40755;SDS011;26461;45.630;9.418;2023-02-04T08:38:15;6.13;;;2.13;;
40755;SDS011;26461;45.630;9.418;2023-02-04T08:41:25;6.85;;;1.83;;
40755;SDS011;26461;45.630;9.418;2023-02-04T08:44:35;3.15;;;1.08;;
40755;SDS011;26461;45.630;9.418;2023-02-04T08:47:55;4.28;;;1.58;;
40755;SDS011;26461;45.630;9.418;2023-02-04T08:51:05;2.00;;;0.40;;
40755;SDS011;26461;45.630;9.418;2023-02-04T08:54:15;2.42;;;0.60;;
40755;SDS011;26461;45.630;9.418;2023-02-04T08:57:19;2.42;;;0.60;;
40755;SDS011;26461;45.630;9.418;2023-02-04T09:00:29;5.45;;;0.45;;
40755;SDS011;26461;45.630;9.418;2023-02-04T09:03:40;5.43;;;0.30;;
40755;SDS011;26461;45.630;9.418;2023-02-04T09:06:50;1.60;;;0.32;;
40755;SDS011;26461;45.630;9.418;2023-02-04T09:10:01;2.10;;;0.40;;
40755;SDS011;26461;45.630;9.418;2023-02-04T09:13:06;16.27;;;0.50;;
40755;SDS011;26461;45.630;9.418;2023-02-04T09:16:19;1.73;;;0.30;;
40755;SDS011;26461;45.630;9.418;2023-02-04T09:19:29;2.15;;;0.40;;
40755;SDS011;26461;45.630;9.418;2023-02-04T09:22:39;1.90;;;0.30;;
40755;SDS011;26461;45.630;9.418;2023-02-04T09:25:49;1.60;;;0.30;;
40755;SDS011;26461;45.630;9.418;2023-02-04T09:28:59;2.30;;;0.35;;
40755;SDS011;26461;45.630;9.418;2023-02-04T09:32:03;1.70;;;0.30;;
40755;SDS011;26461;45.630;9.418;2023-02-04T09:35:13;1.80;;;0.30;;
40755;SDS011;26461;45.630;9.418;2023-02-04T09:38:23;1.70;;;0.30;;
40755;SDS011;26461;45.630;9.418;2023-02-04T09:41:34;3.78;;;0.70;;
40755;SDS011;26461;45.630;9.418;2023-02-04T09:44:45;2.85;;;0.50;;
40755;SDS011;26461;45.630;9.418;2023-02-04T09:47:55;8.02;;;0.95;;
40755;SDS011;26461;45.630;9.418;2023-02-04T09:51:04;11.45;;;4.13;;
40755;SDS011;26461;45.630;9.418;2023-02-04T09:54:16;8.98;;;2.63;;
40755;SDS011;26461;45.630;9.418;2023-02-04T09:57:23;9.45;;;0.85;;
40755;SDS011;26461;45.630;9.418;2023-02-04T10:00:33;4.55;;;1.55;;
40755;SDS011;26461;45.630;9.418;2023-02-04T10:03:44;3.35;;;0.40;;
40755;SDS011;26461;45.630;9.418;2023-02-04T10:06:49;4.15;;;0.95;;
40755;SDS011;26461;45.630;9.418;2023-02-04T10:09:59;4.90;;;1.25;;
40755;SDS011;26461;45.630;9.418;2023-02-04T10:13:14;8.32;;;1.35;;
40755;SDS011;26461;45.630;9.418;2023-02-04T10:16:30;1.70;;;0.30;;
40755;SDS011;26461;45.630;9.418;2023-02-04T10:19:41;2.03;;;0.50;;
40755;SDS011;26461;45.630;9.418;2023-02-04T10:22:52;2.97;;;0.90;;
40755;SDS011;26461;45.630;9.418;2023-02-04T10:26:05;5.82;;;1.20;;
40755;SDS011;26461;45.630;9.418;2023-02-04T10:29:19;15.88;;;9.90;;
40755;SDS011;26461;45.630;9.418;2023-02-04T10:32:26;19.70;;;12.18;;
40755;SDS011;26461;45.630;9.418;2023-02-04T10:35:45;20.88;;;12.57;;
40755;SDS011;26461;45.630;9.418;2023-02-04T10:39:02;20.98;;;10.65;;
40755;SDS011;26461;45.630;9.418;2023-02-04T10:42:22;22.83;;;12.57;;
40755;SDS011;26461;45.630;9.418;2023-02-04T10:45:31;22.08;;;14.48;;
40755;SDS011;26461;45.630;9.418;2023-02-04T10:48:41;20.65;;;14.48;;
40755;SDS011;26461;45.630;9.418;2023-02-04T10:51:51;22.48;;;11.32;;
40755;SDS011;26461;45.630;9.418;2023-02-04T10:54:56;26.83;;;13.27;;
40755;SDS011;26461;45.630;9.418;2023-02-04T10:58:08;23.65;;;12.27;;
40755;SDS011;26461;45.630;9.418;2023-02-04T11:01:23;18.55;;;10.73;;
40755;SDS011;26461;45.630;9.418;2023-02-04T11:04:31;32.22;;;14.52;;
40755;SDS011;26461;45.630;9.418;2023-02-04T11:07:41;24.17;;;12.80;;
40755;SDS011;26461;45.630;9.418;2023-02-04T11:10:59;16.35;;;9.55;;
40755;SDS011;26461;45.630;9.418;2023-02-04T11:17:32;15.77;;;9.68;;
40755;SDS011;26461;45.630;9.418;2023-02-04T11:20:43;19.88;;;10.13;;
40755;SDS011;26461;45.630;9.418;2023-02-04T11:23:49;17.73;;;10.02;;
40755;SDS011;26461;45.630;9.418;2023-02-04T11:27:36;11.10;;;6.13;;
40755;SDS011;26461;45.630;9.418;2023-02-04T11:30:56;4.90;;;2.85;;
40755;SDS011;26461;45.630;9.418;2023-02-04T11:40:42;21.65;;;13.13;;
40755;SDS011;26461;45.630;9.418;2023-02-04T11:43:50;18.98;;;9.32;;
40755;SDS011;26461;45.630;9.418;2023-02-04T11:47:06;10.77;;;7.70;;
40755;SDS011;26461;45.630;9.418;2023-02-04T11:53:28;2.20;;;0.50;;
40755;SDS011;26461;45.630;9.418;2023-02-04T11:56:44;1.77;;;0.30;;
40755;SDS011;26461;45.630;9.418;2023-02-04T11:59:54;6.28;;;0.30;;
40755;SDS011;26461;45.630;9.418;2023-02-04T12:03:05;3.80;;;0.30;;
40755;SDS011;26461;45.630;9.418;2023-02-04T12:06:31;4.65;;;0.30;;
40755;SDS011;26461;45.630;9.418;2023-02-04T12:09:46;4.45;;;0.40;;
40755;SDS011;26461;45.630;9.418;2023-02-04T12:12:59;1.90;;;0.30;;
40755;SDS011;26461;45.630;9.418;2023-02-04T12:16:10;1.60;;;0.30;;
40755;SDS011;26461;45.630;9.418;2023-02-04T12:19:20;2.20;;;0.40;;
40755;SDS011;26461;45.630;9.418;2023-02-04T12:22:30;1.60;;;0.30;;
40755;SDS011;26461;45.630;9.418;2023-02-04T12:25:40;1.60;;;0.30;;
40755;SDS011;26461;45.630;9.418;2023-02-04T12:28:46;1.80;;;0.30;;
40755;SDS011;26461;45.630;9.418;2023-02-04T12:31:51;3.10;;;0.50;;
40755;SDS011;26461;45.630;9.418;2023-02-04T12:34:56;1.60;;;0.25;;
40755;SDS011;26461;45.630;9.418;2023-02-04T12:38:06;2.10;;;0.40;;
40755;SDS011;26461;45.630;9.418;2023-02-04T12:41:17;2.00;;;0.30;;
40755;SDS011;26461;45.630;9.418;2023-02-04T12:44:22;1.98;;;0.30;;
40755;SDS011;26461;45.630;9.418;2023-02-04T12:47:32;2.55;;;0.30;;
40755;SDS011;26461;45.630;9.418;2023-02-04T12:50:42;1.88;;;0.40;;
40755;SDS011;26461;45.630;9.418;2023-02-04T12:53:52;1.60;;;0.30;;
40755;SDS011;26461;45.630;9.418;2023-02-04T12:57:02;2.25;;;0.40;;
40755;SDS011;26461;45.630;9.418;2023-02-04T13:00:12;1.60;;;0.30;;
40755;SDS011;26461;45.630;9.418;2023-02-04T13:03:19;2.45;;;0.65;;
40755;SDS011;26461;45.630;9.418;2023-02-04T13:06:29;1.60;;;0.30;;
40755;SDS011;26461;45.630;9.418;2023-02-04T13:09:38;3.78;;;0.52;;
40755;SDS011;26461;45.630;9.418;2023-02-04T13:12:49;3.03;;;0.30;;
40755;SDS011;26461;45.630;9.418;2023-02-04T13:15:59;1.70;;;0.30;;
40755;SDS011;26461;45.630;9.418;2023-02-04T13:19:09;2.80;;;0.30;;
40755;SDS011;26461;45.630;9.418;2023-02-04T13:22:19;2.53;;;0.40;;
40755;SDS011;26461;45.630;9.418;2023-02-04T13:25:24;1.60;;;0.30;;
40755;SDS011;26461;45.630;9.418;2023-02-04T13:28:35;1.63;;;0.30;;
40755;SDS011;26461;45.630;9.418;2023-02-04T13:31:45;3.15;;;0.40;;
40755;SDS011;26461;45.630;9.418;2023-02-04T13:34:54;1.80;;;0.30;;
40755;SDS011;26461;45.630;9.418;2023-02-04T13:38:04;1.60;;;0.30;;
40755;SDS011;26461;45.630;9.418;2023-02-04T13:41:14;1.85;;;0.30;;
40755;SDS011;26461;45.630;9.418;2023-02-04T13:44:19;2.90;;;0.30;;
40755;SDS011;26461;45.630;9.418;2023-02-04T13:47:24;1.70;;;0.30;;
40755;SDS011;26461;45.630;9.418;2023-02-04T13:50:29;2.03;;;0.28;;
40755;SDS011;26461;45.630;9.418;2023-02-04T13:53:39;1.75;;;0.30;;
40755;SDS011;26461;45.630;9.418;2023-02-04T13:56:49;1.80;;;0.30;;
40755;SDS011;26461;45.630;9.418;2023-02-04T13:59:59;1.90;;;0.30;;
40755;SDS011;26461;45.630;9.418;2023-02-04T14:03:15;3.15;;;0.40;;
40755;SDS011;26461;45.630;9.418;2023-02-04T14:06:25;1.67;;;0.30;;
40755;SDS011;26461;45.630;9.418;2023-02-04T14:09:42;6.03;;;0.93;;
40755;SDS011;26461;45.630;9.418;2023-02-04T14:12:52;7.15;;;1.05;;
40755;SDS011;26461;45.630;9.418;2023-02-04T14:16:02;4.15;;;0.57;;
40755;SDS011;26461;45.630;9.418;2023-02-04T14:19:12;2.10;;;0.40;;
40755;SDS011;26461;45.630;9.418;2023-02-04T14:22:24;3.20;;;0.75;;
40755;SDS011;26461;45.630;9.418;2023-02-04T14:25:29;2.20;;;0.60;;
40755;SDS011;26461;45.630;9.418;2023-02-04T14:28:40;1.63;;;0.30;;
40755;SDS011;26461;45.630;9.418;2023-02-04T14:31:45;2.75;;;0.30;;
40755;SDS011;26461;45.630;9.418;2023-02-04T14:34:55;1.80;;;0.35;;
40755;SDS011;26461;45.630;9.418;2023-02-04T14:38:05;2.30;;;0.40;;
40755;SDS011;26461;45.630;9.418;2023-02-04T14:41:15;2.03;;;0.38;;
40755;SDS011;26461;45.630;9.418;2023-02-04T14:44:28;2.15;;;0.35;;
40755;SDS011;26461;45.630;9.418;2023-02-04T14:47:38;2.35;;;0.40;;
40755;SDS011;26461;45.630;9.418;2023-02-04T14:50:48;1.80;;;0.40;;
40755;SDS011;26461;45.630;9.418;2023-02-04T14:53:59;1.80;;;0.40;;
40755;SDS011;26461;45.630;9.418;2023-02-04T14:57:10;2.55;;;0.30;;
40755;SDS011;26461;45.630;9.418;2023-02-04T15:00:23;1.80;;;0.30;;
40755;SDS011;26461;45.630;9.418;2023-02-04T15:03:34;2.55;;;1.13;;
40755;SDS011;26461;45.630;9.418;2023-02-04T15:06:39;2.60;;;0.35;;
40755;SDS011;26461;45.630;9.418;2023-02-04T15:09:51;3.60;;;0.40;;
40755;SDS011;26461;45.630;9.418;2023-02-04T15:13:01;2.20;;;0.37;;
40755;SDS011;26461;45.630;9.418;2023-02-04T15:16:07;1.80;;;0.30;;
40755;SDS011;26461;45.630;9.418;2023-02-04T15:19:17;9.43;;;0.35;;
40755;SDS011;26461;45.630;9.418;2023-02-04T15:22:23;1.73;;;0.35;;
40755;SDS011;26461;45.630;9.418;2023-02-04T15:25:33;4.22;;;0.40;;
40755;SDS011;26461;45.630;9.418;2023-02-04T15:28:43;3.35;;;0.40;;
40755;SDS011;26461;45.630;9.418;2023-02-04T15:31:53;4.15;;;0.40;;
40755;SDS011;26461;45.630;9.418;2023-02-04T15:35:04;1.83;;;0.30;;
40755;SDS011;26461;45.630;9.418;2023-02-04T15:38:14;2.78;;;0.50;;
40755;SDS011;26461;45.630;9.418;2023-02-04T15:41:19;3.97;;;0.40;;
40755;SDS011;26461;45.630;9.418;2023-02-04T15:44:31;1.80;;;0.40;;
40755;SDS011;26461;45.630;9.418;2023-02-04T15:47:41;1.60;;;0.30;;
40755;SDS011;26461;45.630;9.418;2023-02-04T15:50:51;2.55;;;0.50;;
40755;SDS011;26461;45.630;9.418;2023-02-04T15:53:57;2.58;;;0.50;;
40755;SDS011;26461;45.630;9.418;2023-02-04T15:57:06;3.05;;;0.30;;
40755;SDS011;26461;45.630;9.418;2023-02-04T16:00:12;2.35;;;0.40;;
40755;SDS011;26461;45.630;9.418;2023-02-04T16:03:17;2.60;;;0.52;;
40755;SDS011;26461;45.630;9.418;2023-02-04T16:06:27;4.25;;;1.33;;
40755;SDS011;26461;45.630;9.418;2023-02-04T16:09:37;8.80;;;0.60;;
40755;SDS011;26461;45.630;9.418;2023-02-04T16:12:46;3.45;;;0.40;;
40755;SDS011;26461;45.630;9.418;2023-02-04T16:15:57;2.33;;;0.40;;
40755;SDS011;26461;45.630;9.418;2023-02-04T16:19:07;2.05;;;0.40;;
40755;SDS011;26461;45.630;9.418;2023-02-04T16:22:17;1.63;;;0.30;;
40755;SDS011;26461;45.630;9.418;2023-02-04T16:25:22;8.95;;;0.60;;
40755;SDS011;26461;45.630;9.418;2023-02-04T16:28:34;2.33;;;0.50;;
40755;SDS011;26461;45.630;9.418;2023-02-04T16:31:48;2.67;;;0.60;;
40755;SDS011;26461;45.630;9.418;2023-02-04T16:34:53;7.95;;;1.40;;
40755;SDS011;26461;45.630;9.418;2023-02-04T16:38:04;3.00;;;0.40;;
40755;SDS011;26461;45.630;9.418;2023-02-04T16:41:14;2.53;;;0.50;;
40755;SDS011;26461;45.630;9.418;2023-02-04T16:44:24;3.67;;;1.33;;
40755;SDS011;26461;45.630;9.418;2023-02-04T16:47:32;2.40;;;0.80;;
40755;SDS011;26461;45.630;9.418;2023-02-04T16:50:42;3.05;;;0.70;;
40755;SDS011;26461;45.630;9.418;2023-02-04T16:53:52;2.70;;;0.70;;
40755;SDS011;26461;45.630;9.418;2023-02-04T16:57:02;2.35;;;0.47;;
40755;SDS011;26461;45.630;9.418;2023-02-04T17:00:12;1.80;;;0.40;;
40755;SDS011;26461;45.630;9.418;2023-02-04T17:03:23;5.78;;;1.00;;
40755;SDS011;26461;45.630;9.418;2023-02-04T17:06:33;6.30;;;3.30;;
40755;SDS011;26461;45.630;9.418;2023-02-04T17:09:43;3.38;;;0.57;;
40755;SDS011;26461;45.630;9.418;2023-02-04T17:12:48;2.80;;;1.05;;
40755;SDS011;26461;45.630;9.418;2023-02-04T17:15:58;2.53;;;0.50;;
40755;SDS011;26461;45.630;9.418;2023-02-04T17:19:11;2.35;;;0.40;;
40755;SDS011;26461;45.630;9.418;2023-02-04T17:22:23;3.78;;;0.60;;
40755;SDS011;26461;45.630;9.418;2023-02-04T17:25:28;2.58;;;0.75;;
40755;SDS011;26461;45.630;9.418;2023-02-04T17:28:38;2.55;;;0.50;;
40755;SDS011;26461;45.630;9.418;2023-02-04T17:31:49;7.85;;;1.08;;
40755;SDS011;26461;45.630;9.418;2023-02-04T17:35:00;2.05;;;0.50;;
40755;SDS011;26461;45.630;9.418;2023-02-04T17:38:10;2.60;;;0.45;;
40755;SDS011;26461;45.630;9.418;2023-02-04T17:41:20;2.25;;;0.45;;
40755;SDS011;26461;45.630;9.418;2023-02-04T17:44:31;3.08;;;0.60;;
40755;SDS011;26461;45.630;9.418;2023-02-04T17:47:41;3.38;;;0.60;;
40755;SDS011;26461;45.630;9.418;2023-02-04T17:50:51;2.47;;;0.40;;
40755;SDS011;26461;45.630;9.418;2023-02-04T17:54:01;3.30;;;0.82;;
40755;SDS011;26461;45.630;9.418;2023-02-04T17:57:18;6.10;;;1.55;;
40755;SDS011;26461;45.630;9.418;2023-02-04T18:00:29;5.72;;;1.67;;
40755;SDS011;26461;45.630;9.418;2023-02-04T18:03:39;2.40;;;0.50;;
40755;SDS011;26461;45.630;9.418;2023-02-04T18:06:51;5.20;;;1.15;;
40755;SDS011;26461;45.630;9.418;2023-02-04T18:10:48;3.15;;;0.88;;
40755;SDS011;26461;45.630;9.418;2023-02-04T18:13:37;4.20;;;0.70;;
40755;SDS011;26461;45.630;9.418;2023-02-04T18:16:47;2.40;;;0.40;;
40755;SDS011;26461;45.630;9.418;2023-02-04T18:19:57;2.55;;;0.50;;
40755;SDS011;26461;45.630;9.418;2023-02-04T18:23:14;2.00;;;0.93;;
40755;SDS011;26461;45.630;9.418;2023-02-04T18:26:26;2.35;;;0.60;;
40755;SDS011;26461;45.630;9.418;2023-02-04T18:29:37;4.53;;;0.73;;
40755;SDS011;26461;45.630;9.418;2023-02-04T18:32:48;2.10;;;0.50;;
40755;SDS011;26461;45.630;9.418;2023-02-04T18:35:59;9.55;;;0.85;;
40755;SDS011;26461;45.630;9.418;2023-02-04T18:39:13;11.15;;;6.05;;
40755;SDS011;26461;45.630;9.418;2023-02-04T18:42:26;13.27;;;5.57;;
40755;SDS011;26461;45.630;9.418;2023-02-04T18:45:35;9.05;;;4.30;;
40755;SDS011;26461;45.630;9.418;2023-02-04T18:48:51;69.65;;;40.13;;
40755;SDS011;26461;45.630;9.418;2023-02-04T18:52:14;60.33;;;45.65;;
40755;SDS011;26461;45.630;9.418;2023-02-04T18:55:37;110.57;;;65.38;;
40755;SDS011;26461;45.630;9.418;2023-02-04T18:58:48;113.95;;;56.33;;
40755;SDS011;26461;45.630;9.418;2023-02-04T19:01:59;83.85;;;46.78;;
40755;SDS011;26461;45.630;9.418;2023-02-04T19:05:44;86.22;;;48.95;;
40755;SDS011;26461;45.630;9.418;2023-02-04T19:08:50;74.28;;;47.42;;